Humidity-temperature Sensor

Selected Measurement Type: Relative Humidity

 
Relative Humidity [%]     6 entries per hour
Showing data from 3/17/2023 (00:00:00 Z) to 3/10/2023 (00:01:00 Z)
Previous Next [ Day | 3-Days | 7-Days ]
First Last
Prev [ Day | 3-Days | 7-Days ] Next
First Last

Start Time:     :
End Time:     :     
Time (in GMT) :00 :50 :40 :30 :20 :10
Previous Next [ Day | 3-Days | 7-Days ]
First Last
Prev [ Day | 3-Days | 7-Days ] Next
First Last


123 => good data
MM => data is determined as missing
-- => data not received/configured
Back to Top Back to Top
3/17/2023 00:00 to 23:10 83.81 86.80 85.50 85.46 86.97 87.47
3/16/2023 23:00 to 22:10 84.63 83.46 84.63 83.44 82.85 82.92
3/16/2023 22:00 to 21:10 82.14 82.52 81.79 82.23 81.14 80.87
3/16/2023 21:00 to 20:10 81.02 81.37 84.36 84.98 86.01 85.92
3/16/2023 20:00 to 19:10 86.03 86.92 87.32 86.67 87.34 85.94
3/16/2023 19:00 to 18:10 85.21 84.56 84.86 84.42 89.45 88.70
3/16/2023 18:00 to 17:10 87.49 86.63 85.36 86.74 86.53 84.82
3/16/2023 17:00 to 16:10 83.98 84.34 83.79 84.65 88.36 91.87
3/16/2023 16:00 to 15:10 94.19 94.81 95.86 96.15 95.59 96.65
3/16/2023 15:00 to 14:10 96.36 95.52 93.19 91.91 92.48 92.46
3/16/2023 14:00 to 13:10 93.27 94.21 94.94 95.98 95.48 95.48
3/16/2023 13:00 to 12:10 91.56 86.63 86.51 85.75 85.32 84.92
3/16/2023 12:00 to 11:10 85.00 88.82 91.33 92.58 90.43 87.26
3/16/2023 11:00 to 10:10 90.05 87.68 88.20 87.84 86.80 86.76
3/16/2023 10:00 to 9:10 87.22 86.97 87.34 85.15 84.65 84.19
3/16/2023 09:00 to 8:10 83.81 83.69 84.13 83.06 83.23 82.08
3/16/2023 08:00 to 7:10 82.75 83.31 82.64 83.46 83.27 83.25
3/16/2023 07:00 to 6:10 81.70 81.54 82.66 81.54 81.14 80.99
3/16/2023 06:00 to 5:10 81.04 82.04 81.12 79.83 79.87 79.32
3/16/2023 05:00 to 4:10 79.12 79.22 79.53 78.30 79.43 79.62
3/16/2023 04:00 to 3:10 79.28 79.20 78.64 79.10 79.24 77.53
3/16/2023 03:00 to 2:10 79.28 79.80 78.93 79.68 79.93 79.62
3/16/2023 02:00 to 1:10 80.14 79.99 80.08 80.97 81.33 78.97
3/16/2023 01:00 to 0:10 81.54 80.10 79.99 77.59 77.59 77.34
3/16/2023 00:00 to 23:10 76.24 76.32 76.40 76.57 80.20 77.65
3/15/2023 23:00 to 22:10 78.55 78.20 77.70 76.59 77.15 75.92
3/15/2023 22:00 to 21:10 77.88 77.74 77.17 75.98 77.15 77.70
3/15/2023 21:00 to 20:10 77.43 77.63 76.88 78.24 78.39 77.95
3/15/2023 20:00 to 19:10 77.99 78.11 78.45 76.19 77.28 77.68
3/15/2023 19:00 to 18:10 79.10 78.93 79.95 78.68 77.88 78.03
3/15/2023 18:00 to 17:10 79.22 79.87 79.93 78.18 80.14 80.03
3/15/2023 17:00 to 16:10 80.89 79.45 79.62 78.97 80.81 79.80
3/15/2023 16:00 to 15:10 79.76 80.37 79.83 80.43 80.16 80.58
3/15/2023 15:00 to 14:10 80.35 81.83 81.22 79.87 80.74 81.64
3/15/2023 14:00 to 13:10 79.55 80.31 80.08 81.31 79.64 79.80
3/15/2023 13:00 to 12:10 77.70 77.97 78.45 78.97 76.99 79.10
3/15/2023 12:00 to 11:10 80.58 80.14 80.31 79.99 79.39 80.41
3/15/2023 11:00 to 10:10 78.99 79.64 79.39 80.93 80.93 81.10
3/15/2023 10:00 to 9:10 79.85 79.93 79.60 79.26 81.37 80.83
3/15/2023 09:00 to 8:10 78.99 79.49 82.29 82.18 80.70 80.64
3/15/2023 08:00 to 7:10 81.81 80.33 81.20 81.31 81.41 79.28
3/15/2023 07:00 to 6:10 78.09 80.41 79.85 78.80 78.41 79.83
3/15/2023 06:00 to 5:10 82.33 83.21 83.23 82.14 79.49 81.41
3/15/2023 05:00 to 4:10 79.66 80.39 80.24 79.89 78.95 79.49
3/15/2023 04:00 to 3:10 79.14 78.72 80.18 80.39 79.55 79.91
3/15/2023 03:00 to 2:10 80.97 79.01 78.30 77.47 75.15 74.77
3/15/2023 02:00 to 1:10 74.40 74.69 75.00 78.39 75.94 75.94
3/15/2023 01:00 to 0:10 77.09 77.84 78.11 76.88 76.72 77.32
3/15/2023 00:00 to 23:10 75.36 74.19 73.94 74.48 73.33 74.17
3/14/2023 23:00 to 22:10 73.75 73.48 72.23 75.19 74.75 74.77
3/14/2023 22:00 to 21:10 76.99 76.28 76.01 76.49 77.11 75.00
3/14/2023 21:00 to 20:10 73.38 75.53 76.34 76.05 75.17 75.50
3/14/2023 20:00 to 19:10 75.11 75.02 73.54 75.48 74.04 73.06
3/14/2023 19:00 to 18:10 73.92 74.11 73.69 74.67 75.13 76.09
3/14/2023 18:00 to 17:10 74.02 77.38 77.22 78.26 75.57 78.68
3/14/2023 17:00 to 16:10 79.18 77.84 77.49 75.84 77.20 77.07
3/14/2023 16:00 to 15:10 75.34 74.82 76.55 76.15 76.42 76.03
3/14/2023 15:00 to 14:10 76.65 74.98 78.11 80.47 84.56 79.24
3/14/2023 14:00 to 13:10 78.91 78.93 79.01 80.56 77.95 75.84
3/14/2023 13:00 to 12:10 75.40 77.43 77.68 79.41 79.01 79.30
3/14/2023 12:00 to 11:10 79.74 80.47 81.20 80.54 78.89 77.95
3/14/2023 11:00 to 10:10 78.05 78.95 77.61 78.84 78.11 80.64
3/14/2023 10:00 to 9:10 80.41 76.67 78.68 79.93 80.33 79.39
3/14/2023 09:00 to 8:10 79.51 79.51 78.95 80.37 80.62 79.51
3/14/2023 08:00 to 7:10 80.41 80.77 80.39 81.27 81.18 82.33
3/14/2023 07:00 to 6:10 80.60 80.51 80.39 78.99 82.60 81.10
3/14/2023 06:00 to 5:10 82.79 81.70 82.31 82.92 82.64 82.31
3/14/2023 05:00 to 4:10 81.06 82.06 81.04 82.14 79.35 79.91
3/14/2023 04:00 to 3:10 79.43 79.68 81.12 80.93 81.87 80.43
3/14/2023 03:00 to 2:10 80.10 80.47 81.91 81.62 83.31 81.81
3/14/2023 02:00 to 1:10 81.02 82.16 80.24 79.28 80.85 80.06
3/14/2023 01:00 to 0:10 81.68 81.27 80.77 80.16 82.08 80.91
3/14/2023 00:00 to 23:10 81.62 81.66 79.64 80.41 80.64 81.50
3/13/2023 23:00 to 22:10 82.33 85.04 84.79 86.59 87.93 85.09
3/13/2023 22:00 to 21:10 84.79 85.34 85.13 85.84 84.48 83.27
3/13/2023 21:00 to 20:10 82.46 83.75 83.40 82.33 82.73 83.75
3/13/2023 20:00 to 19:10 81.89 84.34 86.15 86.69 84.27 84.56
3/13/2023 19:00 to 18:10 84.73 84.77 84.00 83.58 82.37 81.58
3/13/2023 18:00 to 17:10 82.50 83.98 83.63 85.15 82.96 85.92
3/13/2023 17:00 to 16:10 84.98 83.90 83.19 83.02 83.85 83.02
3/13/2023 16:00 to 15:10 84.67 83.63 84.15 83.15 84.15 83.94
3/13/2023 15:00 to 14:10 84.65 86.26 85.40 84.67 85.84 86.03
3/13/2023 14:00 to 13:10 84.90 86.40 84.54 83.67 85.15 86.97
3/13/2023 13:00 to 12:10 85.71 84.94 84.23 83.81 85.46 85.82
3/13/2023 12:00 to 11:10 84.38 84.84 85.98 85.42 86.55 85.71
3/13/2023 11:00 to 10:10 85.21 85.42 84.98 83.50 82.48 84.54
3/13/2023 10:00 to 9:10 84.36 85.11 88.30 88.01 88.84 87.49
3/13/2023 09:00 to 8:10 84.86 86.67 85.44 86.05 90.39 85.65
3/13/2023 08:00 to 7:10 85.25 84.65 83.90 83.73 81.08 82.37
3/13/2023 07:00 to 6:10 81.35 83.52 83.00 81.33 80.51 80.58
3/13/2023 06:00 to 5:10 81.10 80.14 81.50 81.64 80.06 79.78
3/13/2023 05:00 to 4:10 79.01 78.87 78.03 78.36 78.84 77.43
3/13/2023 04:00 to 3:10 77.74 76.90 77.43 78.11 77.01 76.97
3/13/2023 03:00 to 2:10 76.51 76.97 81.98 81.60 81.60 82.71
3/13/2023 02:00 to 1:10 82.83 80.97 80.79 80.89 80.16 81.52
3/13/2023 01:00 to 0:10 80.47 80.54 80.22 80.74 79.10 81.56
3/13/2023 00:00 to 23:10 80.51 81.14 80.33 80.79 80.12 81.45
3/12/2023 23:00 to 22:10 80.99 80.37 81.22 79.49 79.95 79.97
3/12/2023 22:00 to 21:10 80.33 78.47 79.53 80.08 80.60 79.85
3/12/2023 21:00 to 20:10 79.12 76.67 76.92 82.62 83.60 86.44
3/12/2023 20:00 to 19:10 83.54 82.35 83.67 85.13 84.50 83.83
3/12/2023 19:00 to 18:10 79.91 85.40 83.65 84.48 85.55 85.38
3/12/2023 18:00 to 17:10 85.84 84.15 82.21 81.98 79.53 76.80
3/12/2023 17:00 to 16:10 79.20 85.02 82.27 81.93 85.65 85.96
3/12/2023 16:00 to 15:10 88.16 87.82 85.65 84.75 86.11 87.76
3/12/2023 15:00 to 14:10 90.12 92.25 85.65 86.34 86.76 86.42
3/12/2023 14:00 to 13:10 85.90 85.96 82.27 81.14 79.70 78.66
3/12/2023 13:00 to 12:10 79.53 79.68 79.32 78.39 80.97 80.35
3/12/2023 12:00 to 11:10 81.25 79.78 80.99 80.41 80.79 80.39
3/12/2023 11:00 to 10:10 79.66 80.89 79.74 80.14 78.59 78.34
3/12/2023 10:00 to 9:10 79.58 80.37 79.26 80.35 79.28 79.91
3/12/2023 09:00 to 8:10 80.56 79.60 78.89 78.57 78.24 77.32
3/12/2023 08:00 to 7:10 77.07 76.69 76.92 79.10 80.10 80.39
3/12/2023 07:00 to 6:10 79.55 81.31 79.85 78.76 80.22 78.89
3/12/2023 06:00 to 5:10 78.72 79.89 78.97 79.24 77.70 79.49
3/12/2023 05:00 to 4:10 78.84 77.61 78.01 78.11 77.59 79.39
3/12/2023 04:00 to 3:10 79.91 77.57 77.38 78.09 80.74 84.48
3/12/2023 03:00 to 2:10 83.83 84.17 84.36 83.85 84.04 84.11
3/12/2023 02:00 to 1:10 84.06 84.48 84.08 84.54 84.56 85.02
3/12/2023 01:00 to 0:10 84.50 83.17 83.85 84.77 83.25 83.31
3/12/2023 00:00 to 23:10 82.39 83.79 84.38 88.01 89.66 89.53
3/11/2023 23:00 to 22:10 88.24 88.84 86.15 86.88 82.58 82.89
3/11/2023 22:00 to 21:10 83.67 83.96 81.22 81.33 84.46 87.01
3/11/2023 21:00 to 20:10 83.67 84.34 85.86 85.42 84.48 84.73
3/11/2023 20:00 to 19:10 85.84 86.49 87.20 86.51 88.57 89.01
3/11/2023 19:00 to 18:10 89.32 84.92 87.74 85.92 85.44 83.60
3/11/2023 18:00 to 17:10 85.09 84.38 83.31 83.35 82.83 83.08
3/11/2023 17:00 to 16:10 84.04 83.63 84.34 84.44 84.06 85.13
3/11/2023 16:00 to 15:10 84.73 85.23 85.55 86.88 84.94 85.75
3/11/2023 15:00 to 14:10 85.00 85.23 84.71 84.42 84.59 85.13
3/11/2023 14:00 to 13:10 85.96 84.25 84.84 84.36 86.09 85.48
3/11/2023 13:00 to 12:10 86.28 86.23 85.00 88.57 89.95 89.22
3/11/2023 12:00 to 11:10 85.75 85.50 84.79 84.15 84.11 83.67
3/11/2023 11:00 to 10:10 84.79 87.84 88.61 87.95 88.51 89.49
3/11/2023 10:00 to 9:10 89.35 88.89 86.59 84.84 84.82 85.57
3/11/2023 09:00 to 8:10 89.95 89.12 87.97 86.94 89.74 90.58
3/11/2023 08:00 to 7:10 91.27 90.64 90.18 90.10 87.47 88.32
3/11/2023 07:00 to 6:10 85.00 86.84 90.76 90.10 92.62 93.35
3/11/2023 06:00 to 5:10 93.85 93.02 93.75 94.73 95.11 93.83
3/11/2023 05:00 to 4:10 94.02 94.27 89.66 90.03 89.83 91.29
3/11/2023 04:00 to 3:10 91.54 92.31 90.51 88.49 88.55 89.49
3/11/2023 03:00 to 2:10 90.68 93.56 96.90 96.36 95.44 94.31
3/11/2023 02:00 to 1:10 95.67 97.76 98.41 98.55 98.34 98.15
3/11/2023 01:00 to 0:10 98.66 98.01 98.09 97.65 97.01 97.09
3/11/2023 00:00 to 23:10 96.11 88.72 81.60 82.79 83.15 82.14
3/10/2023 23:00 to 22:10 82.79 82.58 81.87 82.04 80.39 80.93
3/10/2023 22:00 to 21:10 81.79 81.04 81.18 79.53 78.76 79.30
3/10/2023 21:00 to 20:10 82.16 81.58 79.68 79.70 79.97 78.51
3/10/2023 20:00 to 19:10 79.03 78.03 78.82 79.22 78.07 79.03
3/10/2023 19:00 to 18:10 80.56 79.28 78.62 78.51 78.97 80.08
3/10/2023 18:00 to 17:10 79.87 80.45 81.66 80.97 80.08 80.87
3/10/2023 17:00 to 16:10 79.47 79.37 79.85 78.26 79.55 80.85
3/10/2023 16:00 to 15:10 80.95 79.30 78.68 79.37 79.10 79.93
3/10/2023 15:00 to 14:10 79.85 80.47 80.26 80.91 79.53 79.93
3/10/2023 14:00 to 13:10 79.03 78.55 78.59 77.93 78.20 81.41
3/10/2023 13:00 to 12:10 80.95 80.95 80.81 81.37 80.10 80.20
3/10/2023 12:00 to 11:10 80.62 81.56 80.39 82.29 83.12 83.04
3/10/2023 11:00 to 10:10 81.70 82.39 79.83 77.30 76.03 76.40
3/10/2023 10:00 to 9:10 78.20 76.90 74.79 75.11 74.57 75.92
3/10/2023 09:00 to 8:10 72.71 73.54 74.61 74.94 73.63 73.46
3/10/2023 08:00 to 7:10 75.13 75.34 74.79 75.25 75.27 73.08
3/10/2023 07:00 to 6:10 73.38 74.38 73.25 72.92 74.92 72.54
3/10/2023 06:00 to 5:10 73.44 73.75 72.77 72.71 75.44 75.23
3/10/2023 05:00 to 4:10 72.90 74.11 74.00 72.85 73.56 73.83
3/10/2023 04:00 to 3:10 71.31 71.41 71.64 71.31 71.85 71.71
3/10/2023 03:00 to 2:10 71.96 73.94 73.73 73.75 75.48 75.15
3/10/2023 02:00 to 1:10 74.77 72.69 73.88 75.65 75.38 75.02
3/10/2023 01:00 to 0:10 75.21 74.71 76.15 75.69 74.71 74.54